Terminal Aerodrome Forecast
Issued by NWS

Home | Current Version | Previous Version | Text Only | Print | Product List | Glossary Off
Versions: 1 2 3 4 5 6 7 8 9 10 11 12 13 14 15 16 17 18 19 20 21

000
FTUS43 KGRB 290622 AAA
TAFRHI
TAF AMD
KRHI 290622Z 2906/3006 02005KT P6SM SCT008
      TEMPO 2906/2910 BKN008
     FM291000 02005KT 6SM BR BKN006
     FM291400 04007KT P6SM SCT015
     FM291600 04009KT P6SM SCT040
     FM300100 04003KT P6SM FEW090=

USA.gov is the U.S. government's official web portal to all federal, state and local government web resources and services.